Time;durP1;ratioP1;P1;durP2;ratioP2;P2;SDS_P1;SDS_P2;PMS_P1;PMS_P2;Temp;Humidity;BMP_temperature;BMP_pressure;BME280_temperature;BME280_humidity;BME280_pressure;Samples;Min_cycle;Max_cycle;Signal;HPM_P1;HPM_P2
2022/03/10 00:00:10;;;;;;;21.30;12.23;;;2.00;85.70;;;;;;6152090;23;20033;-83
2022/03/10 00:02:36;;;;;;;20.93;11.77;;;1.40;86.00;;;;;;6103047;23;20018;-83
2022/03/10 00:05:03;;;;;;;22.83;11.20;;;2.30;86.30;;;;;;6151753;23;20100;-83
2022/03/10 00:07:28;;;;;;;18.98;11.27;;;1.40;85.60;;;;;;6102472;23;20053;-83
2022/03/10 00:09:54;;;;;;;20.67;11.48;;;1.40;85.30;;;;;;6103366;23;20018;-85
2022/03/10 00:12:20;;;;;;;19.63;11.13;;;1.40;85.70;;;;;;6102744;23;20017;-83
2022/03/10 00:14:46;;;;;;;18.48;10.57;;;2.20;86.20;;;;;;6102993;23;20032;-83
2022/03/10 00:17:12;;;;;;;20.90;11.13;;;1.50;88.30;;;;;;6102976;23;20022;-84
2022/03/10 00:19:37;;;;;;;20.27;11.27;;;1.40;87.00;;;;;;6126948;23;20021;-83
2022/03/10 00:22:03;;;;;;;21.63;12.15;;;1.40;86.40;;;;;;6102018;23;20026;-83
2022/03/10 00:24:29;;;;;;;18.23;10.68;;;1.50;87.40;;;;;;6102667;23;20032;-83
2022/03/10 00:26:55;;;;;;;18.73;11.27;;;1.50;88.30;;;;;;6151421;23;20017;-83
2022/03/10 00:29:21;;;;;;;16.85;10.55;;;1.50;88.30;;;;;;6078571;23;20057;-83
2022/03/10 00:31:47;;;;;;;23.98;11.05;;;1.50;87.50;;;;;;6078463;23;20018;-83
2022/03/10 00:34:13;;;;;;;20.77;11.50;;;1.50;87.40;;;;;;6102921;23;20460;-83
2022/03/10 00:36:38;;;;;;;22.77;11.13;;;1.40;88.10;;;;;;6126583;23;20100;-83
2022/03/10 00:39:04;;;;;;;21.10;10.93;;;1.50;88.70;;;;;;6102516;23;20013;-83
2022/03/10 00:41:30;;;;;;;20.15;10.73;;;1.40;88.30;;;;;;6102727;23;20116;-83
2022/03/10 00:43:56;;;;;;;22.00;12.02;;;1.30;88.40;;;;;;6101987;23;20018;-83
2022/03/10 00:46:22;;;;;;;19.00;10.57;;;1.90;88.90;;;;;;6102395;23;20352;-83
2022/03/10 00:48:47;;;;;;;18.52;11.40;;;1.30;88.80;;;;;;6126569;23;20021;-83
2022/03/10 00:51:13;;;;;;;22.40;10.82;;;1.20;88.30;;;;;;6102565;23;20017;-83
2022/03/10 00:53:39;;;;;;;19.58;10.82;;;1.20;89.10;;;;;;6127200;23;20053;-83
2022/03/10 00:56:04;;;;;;;20.20;11.00;;;1.30;90.10;;;;;;6102935;23;20445;-83
2022/03/10 00:58:30;;;;;;;19.20;11.00;;;1.30;89.70;;;;;;6078640;23;20076;-84
2022/03/10 01:00:56;;;;;;;18.83;11.25;;;1.30;89.60;;;;;;6101777;23;20022;-84
2022/03/10 01:03:22;;;;;;;20.17;12.27;;;1.30;89.20;;;;;;6126514;23;20017;-83
2022/03/10 01:05:47;;;;;;;17.08;10.30;;;1.30;89.30;;;;;;6102103;23;20014;-83
2022/03/10 01:08:13;;;;;;;18.95;11.15;;;1.20;90.20;;;;;;6102201;23;20018;-83
2022/03/10 01:10:39;;;;;;;20.15;11.35;;;1.20;90.30;;;;;;6151296;23;20096;-83
2022/03/10 01:13:12;;;;;;;18.67;10.95;;;1.20;90.80;;;;;;6101886;23;20013;-83
2022/03/10 01:15:38;;;;;;;20.50;11.88;;;1.10;91.00;;;;;;6102094;23;20060;-83
2022/03/10 01:18:04;;;;;;;20.90;11.55;;;1.00;91.10;;;;;;6078027;23;20021;-82
2022/03/10 01:20:30;;;;;;;21.42;11.45;;;0.90;91.50;;;;;;6126689;23;20040;-83
2022/03/10 01:22:55;;;;;;;21.08;11.55;;;0.90;91.40;;;;;;6102085;23;20049;-83
2022/03/10 01:25:21;;;;;;;19.10;11.48;;;0.70;91.80;;;;;;6102058;23;20021;-83
2022/03/10 01:27:47;;;;;;;19.30;11.07;;;0.60;92.10;;;;;;6077801;23;20048;-83
2022/03/10 01:30:14;;;;;;;21.08;12.55;;;0.50;92.40;;;;;;6126156;23;20014;-82
2022/03/10 01:32:40;;;;;;;23.70;11.38;;;0.50;92.30;;;;;;6101676;23;20020;-82
2022/03/10 01:35:06;;;;;;;23.63;12.35;;;0.40;92.60;;;;;;6101640;23;20013;-83
2022/03/10 01:37:36;;;;;;;19.70;12.10;;;0.30;92.80;;;;;;6102110;23;20130;-83
2022/03/10 01:40:07;;;;;;;22.55;12.73;;;0.30;93.50;;;;;;6102748;23;20025;-82
2022/03/10 01:42:33;;;;;;;20.58;11.70;;;0.20;93.80;;;;;;6144856;23;20481;-83
2022/03/10 01:44:59;;;;;;;25.88;12.73;;;0.20;94.10;;;;;;6072124;23;20018;-83
2022/03/10 01:47:25;;;;;;;24.33;12.18;;;0.10;94.30;;;;;;6095768;23;20017;-82
2022/03/10 01:49:50;;;;;;;23.60;12.98;;;0.10;94.60;;;;;;6048645;23;20022;-83
2022/03/10 01:52:18;;;;;;;16.90;10.85;;;0.00;94.50;;;;;;6071970;23;20022;-83
2022/03/10 01:54:44;;;;;;;23.88;12.05;;;0.00;94.70;;;;;;6095984;23;20024;-83
2022/03/10 01:57:11;;;;;;;23.20;12.18;;;0.00;95.10;;;;;;6095880;23;20156;-83
2022/03/10 01:59:39;;;;;;;22.30;12.13;;;-0.10;95.20;;;;;;6095847;23;20033;-82
2022/03/10 02:02:06;;;;;;;23.35;12.55;;;-0.10;95.10;;;;;;6071951;23;20045;-83
2022/03/10 02:04:32;;;;;;;22.05;12.98;;;-0.20;96.00;;;;;;6073102;23;20017;-84
2022/03/10 02:06:58;;;;;;;18.83;11.85;;;-0.20;95.90;;;;;;6096105;23;20020;-83
2022/03/10 02:12:08;;;;;;;21.38;12.30;;;-0.20;95.70;;;;;;6096359;23;20020;-83
2022/03/10 02:17:21;;;;;;;24.95;11.30;;;0.90;96.00;;;;;;6094527;23;20484;-83
2022/03/10 02:19:52;;;;;;;18.15;12.05;;;-0.20;95.80;;;;;;6071913;23;20022;-83
2022/03/10 02:22:19;;;;;;;21.30;12.35;;;-0.10;95.60;;;;;;6095341;23;20018;-83
2022/03/10 02:24:45;;;;;;;18.50;11.73;;;0.80;95.90;;;;;;6048248;23;20022;-83
2022/03/10 02:27:37;;;;;;;20.98;12.63;;;-0.30;95.70;;;;;;6024200;23;20032;-83
2022/03/10 02:30:03;;;;;;;23.05;12.43;;;-0.30;96.20;;;;;;6043722;23;20083;-83
2022/03/10 02:32:29;;;;;;;19.70;11.57;;;-0.30;95.80;;;;;;6047816;23;20413;-83
2022/03/10 02:34:55;;;;;;;21.38;11.65;;;-0.20;95.60;;;;;;6023679;23;20032;-82
2022/03/10 02:37:21;;;;;;;19.40;11.70;;;-0.20;95.50;;;;;;6047888;23;20339;-82
2022/03/10 02:39:47;;;;;;;20.17;10.95;;;-0.20;95.50;;;;;;6071505;23;20881;-83
2022/03/10 02:42:15;;;;;;;19.63;11.43;;;-0.20;95.70;;;;;;6095807;23;20043;-83
2022/03/10 02:44:46;;;;;;;19.88;10.27;;;-0.20;95.90;;;;;;6100073;23;20024;-82
2022/03/10 02:47:11;;;;;;;18.88;11.57;;;-0.20;96.10;;;;;;6100497;23;20018;-82
2022/03/10 02:49:39;;;;;;;21.00;11.88;;;-0.20;96.00;;;;;;6124878;23;20029;-83
2022/03/10 02:52:05;;;;;;;21.10;11.60;;;-0.30;96.00;;;;;;6052594;23;20523;-83
2022/03/10 02:54:31;;;;;;;20.90;10.75;;;-0.30;96.30;;;;;;6124702;23;20022;-83
2022/03/10 02:56:57;;;;;;;18.85;11.35;;;-0.30;96.80;;;;;;6124778;23;20477;-83
2022/03/10 02:59:23;;;;;;;19.15;11.07;;;-0.30;96.50;;;;;;6124533;23;20110;-83
2022/03/10 03:01:49;;;;;;;20.80;10.73;;;-0.40;96.90;;;;;;6100161;23;20049;-83
2022/03/10 03:04:15;;;;;;;20.50;11.50;;;-0.40;96.50;;;;;;6076388;23;20023;-83
2022/03/10 03:06:41;;;;;;;21.70;11.80;;;-0.40;96.50;;;;;;6124799;23;20096;-84
2022/03/10 03:09:07;;;;;;;27.45;11.73;;;-0.40;96.50;;;;;;6100048;23;20022;-84
2022/03/10 03:11:33;;;;;;;18.05;11.02;;;-0.50;96.80;;;;;;6100493;23;20006;-83
2022/03/10 03:14:01;;;;;;;16.63;9.70;;;-0.40;97.00;;;;;;6124606;23;20456;-83
2022/03/10 03:16:28;;;;;;;17.38;11.07;;;-0.40;96.80;;;;;;6100481;23;20017;-83
2022/03/10 03:18:54;;;;;;;18.95;10.73;;;-0.40;96.80;;;;;;6124532;23;20013;-83
2022/03/10 03:21:20;;;;;;;21.70;11.90;;;-0.40;96.90;;;;;;6099694;23;20013;-84
2022/03/10 03:23:47;;;;;;;21.45;11.63;;;-0.40;97.10;;;;;;6099971;23;20122;-83
2022/03/10 03:26:14;;;;;;;17.08;9.88;;;-0.40;97.00;;;;;;6100415;23;20040;-84
2022/03/10 03:28:39;;;;;;;20.58;10.68;;;-0.40;96.90;;;;;;6100319;23;20080;-84
2022/03/10 03:31:05;;;;;;;16.92;10.30;;;-0.40;97.10;;;;;;6124144;23;20449;-83
2022/03/10 03:33:31;;;;;;;31.35;10.80;;;-0.30;97.10;;;;;;6100093;23;20026;-83
2022/03/10 03:35:57;;;;;;;19.33;10.63;;;-0.30;97.10;;;;;;6076289;23;20017;-83
2022/03/10 03:38:23;;;;;;;21.27;11.00;;;-0.30;97.40;;;;;;6100088;23;20060;-83
2022/03/10 03:40:49;;;;;;;21.65;12.05;;;-0.30;97.60;;;;;;6100514;23;20021;-83
2022/03/10 03:43:15;;;;;;;23.38;12.07;;;-0.40;97.80;;;;;;6123926;23;20029;-83
2022/03/10 03:45:41;;;;;;;19.60;11.10;;;-0.40;97.70;;;;;;6100097;23;20229;-83
2022/03/10 03:48:06;;;;;;;21.92;13.10;;;-0.50;98.00;;;;;;6076191;23;20045;-83
2022/03/10 03:50:32;;;;;;;20.65;12.30;;;-0.60;98.30;;;;;;6100095;23;20491;-84
2022/03/10 03:52:58;;;;;;;18.50;11.45;;;0.30;98.90;;;;;;6100242;23;20017;-84
2022/03/10 03:55:23;;;;;;;23.88;12.38;;;-0.60;98.90;;;;;;6076903;23;20078;-84
2022/03/10 03:57:49;;;;;;;20.42;11.30;;;-0.70;99.00;;;;;;6078244;23;20092;-83
2022/03/10 04:00:15;;;;;;;19.38;11.45;;;-0.70;98.60;;;;;;6101605;23;20057;-83
2022/03/10 04:02:42;;;;;;;21.52;12.23;;;-0.80;98.40;;;;;;6126317;23;20026;-83
2022/03/10 04:05:08;;;;;;;21.92;13.07;;;-0.80;98.50;;;;;;6125876;23;20017;-83
2022/03/10 04:07:35;;;;;;;18.98;12.05;;;-0.80;98.50;;;;;;6077752;23;20013;-83
2022/03/10 04:10:01;;;;;;;18.63;11.15;;;-0.40;98.80;;;;;;6054347;23;20398;-83
2022/03/10 04:12:27;;;;;;;19.40;11.80;;;-0.90;99.20;;;;;;6125900;23;20056;-83
2022/03/10 04:14:52;;;;;;;20.42;11.63;;;-0.90;99.00;;;;;;6126030;23;20767;-83
2022/03/10 04:17:18;;;;;;;21.42;12.40;;;-0.80;99.00;;;;;;6126204;23;20032;-82
2022/03/10 04:19:44;;;;;;;21.27;12.38;;;-0.90;98.80;;;;;;6126022;23;20026;-83
2022/03/10 04:22:10;;;;;;;26.50;12.88;;;-0.90;98.90;;;;;;6077919;23;20081;-83
2022/03/10 04:24:35;;;;;;;18.45;10.38;;;-0.90;99.30;;;;;;6126318;23;20013;-84
2022/03/10 04:27:01;;;;;;;18.10;11.60;;;-0.90;99.00;;;;;;6077529;23;20017;-83
2022/03/10 04:29:27;;;;;;;18.90;11.20;;;-0.80;99.30;;;;;;6101582;23;20021;-83
2022/03/10 04:31:53;;;;;;;20.50;11.80;;;-0.80;99.00;;;;;;6101292;23;20014;-83
2022/03/10 04:34:18;;;;;;;19.25;10.50;;;-0.80;99.10;;;;;;6101480;23;20076;-83
2022/03/10 04:36:44;;;;;;;23.83;12.02;;;-0.80;99.10;;;;;;6101338;23;20017;-84
2022/03/10 04:39:10;;;;;;;19.42;10.75;;;-0.80;98.80;;;;;;6101961;23;20025;-84
2022/03/10 04:41:36;;;;;;;18.73;11.55;;;-0.50;99.30;;;;;;6077313;23;20457;-83
2022/03/10 04:44:02;;;;;;;18.42;10.93;;;-0.80;99.20;;;;;;6101429;23;20021;-84
2022/03/10 04:46:29;;;;;;;20.90;9.93;;;-0.80;99.30;;;;;;6125503;23;20057;-83
2022/03/10 04:48:54;;;;;;;19.30;10.77;;;-0.70;99.50;;;;;;6125679;23;20505;-83
2022/03/10 04:51:20;;;;;;;18.98;10.90;;;-0.70;99.50;;;;;;6101072;23;20019;-83
2022/03/10 04:53:46;;;;;;;24.50;11.32;;;-0.70;99.50;;;;;;6053909;23;20017;-83
2022/03/10 04:56:12;;;;;;;23.70;11.60;;;-0.70;99.40;;;;;;6077460;23;20405;-83
2022/03/10 04:58:38;;;;;;;17.83;10.50;;;-0.70;99.50;;;;;;6125768;23;20028;-83
2022/03/10 05:01:04;;;;;;;19.25;10.23;;;-0.70;99.40;;;;;;6125473;23;20018;-83
2022/03/10 05:03:32;;;;;;;19.83;11.20;;;-0.80;99.70;;;;;;6077161;23;20014;-84
2022/03/10 05:05:58;;;;;;;18.42;10.75;;;-0.80;99.70;;;;;;6101189;23;20349;-83
2022/03/10 05:08:24;;;;;;;19.77;11.02;;;-0.80;99.90;;;;;;6101140;23;20013;-84
2022/03/10 05:10:49;;;;;;;19.90;11.38;;;-0.70;99.90;;;;;;6101267;23;20389;-83
2022/03/10 05:13:15;;;;;;;21.98;12.02;;;-0.70;99.70;;;;;;6125381;23;20397;-83
2022/03/10 05:15:41;;;;;;;21.17;11.18;;;-0.70;99.90;;;;;;6125105;23;20068;-83
2022/03/10 05:18:06;;;;;;;20.02;11.02;;;-0.60;99.70;;;;;;6101278;23;20060;-84
2022/03/10 05:20:32;;;;;;;18.60;11.05;;;-0.60;99.60;;;;;;6125916;23;20076;-83
2022/03/10 05:23:00;;;;;;;21.80;11.57;;;-0.70;99.80;;;;;;6076954;23;20334;-83
2022/03/10 05:25:40;;;;;;;20.35;11.13;;;-0.60;99.90;;;;;;6125725;23;20080;-83
2022/03/10 05:28:12;;;;;;;18.15;10.95;;;-0.70;99.90;;;;;;6125485;23;20085;-84
2022/03/10 05:30:39;;;;;;;24.20;12.23;;;-0.70;99.90;;;;;;6102058;23;20049;-84
2022/03/10 05:33:04;;;;;;;20.52;12.27;;;-0.80;99.90;;;;;;6100871;23;20326;-83
2022/03/10 05:35:30;;;;;;;23.88;11.73;;;-0.80;99.90;;;;;;6125546;23;20028;-83
2022/03/10 05:37:56;;;;;;;21.05;10.90;;;-0.60;99.90;;;;;;6077297;23;20024;-83
2022/03/10 05:40:23;;;;;;;21.25;11.73;;;0.00;99.90;;;;;;6124925;23;20057;-83
2022/03/10 05:42:52;;;;;;;25.13;11.65;;;-0.90;99.90;;;;;;6120186;23;20029;-84
2022/03/10 05:45:20;;;;;;;17.25;10.75;;;-0.90;99.90;;;;;;6071500;23;20112;-84
2022/03/10 05:47:50;;;;;;;19.63;10.95;;;-1.00;99.90;;;;;;6072684;23;20081;-83
2022/03/10 05:50:17;;;;;;;24.15;11.93;;;-1.00;99.90;;;;;;6072023;23;20041;-83
2022/03/10 05:52:45;;;;;;;20.60;11.85;;;-1.00;99.90;;;;;;6095696;23;20393;-83
2022/03/10 05:55:15;;;;;;;18.70;11.93;;;-1.00;99.90;;;;;;6071693;23;20026;-83
2022/03/10 05:57:42;;;;;;;21.73;11.45;;;-1.10;99.90;;;;;;6071372;23;20025;-83
2022/03/10 06:00:10;;;;;;;27.00;12.15;;;-1.10;99.90;;;;;;6095321;23;20018;-83
2022/03/10 06:02:36;;;;;;;18.27;10.98;;;-1.10;99.90;;;;;;6047962;23;20105;-83
2022/03/10 06:05:02;;;;;;;21.88;11.48;;;-1.10;99.90;;;;;;6095437;23;20025;-84
2022/03/10 06:07:29;;;;;;;20.30;10.88;;;-1.20;99.90;;;;;;6095555;23;20014;-83
2022/03/10 06:09:55;;;;;;;19.48;11.60;;;-1.20;99.90;;;;;;6071398;23;20525;-83
2022/03/10 06:12:26;;;;;;;17.83;11.65;;;-1.20;99.90;;;;;;6071243;23;20026;-83
2022/03/10 06:15:04;;;;;;;23.23;11.63;;;-1.20;99.90;;;;;;6071754;23;20095;-83
2022/03/10 06:17:29;;;;;;;18.25;11.23;;;-1.30;99.90;;;;;;6093176;23;20353;-83
2022/03/10 06:19:55;;;;;;;22.63;11.88;;;-1.30;99.90;;;;;;6071291;23;20018;-83
2022/03/10 06:22:24;;;;;;;22.80;11.57;;;-1.30;99.90;;;;;;6094955;23;20022;-83
2022/03/10 06:24:50;;;;;;;18.98;11.15;;;-1.30;99.90;;;;;;6071897;23;20390;-84
2022/03/10 06:27:17;;;;;;;21.23;11.57;;;-1.30;99.90;;;;;;6047581;23;20009;-83
2022/03/10 06:29:44;;;;;;;20.48;10.95;;;-1.30;99.90;;;;;;6071963;23;20022;-83
2022/03/10 06:32:12;;;;;;;22.38;12.52;;;-1.30;99.90;;;;;;6071276;23;20018;-86
2022/03/10 06:34:38;;;;;;;22.20;11.95;;;-1.30;99.90;;;;;;6041444;23;20014;-83
2022/03/10 06:37:07;;;;;;;27.17;13.88;;;-2.30;99.90;;;;;;6085821;23;20157;-82
2022/03/10 06:39:34;;;;;;;24.17;12.32;;;-1.20;99.90;;;;;;6064388;23;20029;-81
2022/03/10 06:42:00;;;;;;;20.30;11.07;;;-1.20;99.90;;;;;;6064786;23;20022;-82
2022/03/10 06:44:26;;;;;;;20.10;12.27;;;-1.10;99.90;;;;;;6112720;23;20480;-83
2022/03/10 06:46:52;;;;;;;26.02;12.27;;;-0.80;99.90;;;;;;6118164;23;20021;-82
2022/03/10 06:49:18;;;;;;;23.38;12.70;;;-1.00;99.90;;;;;;6093154;23;20018;-82
2022/03/10 06:51:44;;;;;;;22.85;11.85;;;-1.00;99.90;;;;;;6117380;23;20149;-82
2022/03/10 06:54:10;;;;;;;20.77;12.32;;;-0.90;99.90;;;;;;6093240;23;20441;-85
2022/03/10 06:56:36;;;;;;;24.42;11.95;;;-0.90;99.90;;;;;;6117675;23;20349;-85
2022/03/10 06:59:01;;;;;;;22.17;12.65;;;-0.80;99.90;;;;;;6116578;23;20021;-81
2022/03/10 07:01:27;;;;;;;44.65;20.92;;;-0.80;99.90;;;;;;6117651;23;20061;-84
2022/03/10 07:03:57;;;;;;;27.45;15.18;;;-0.70;99.90;;;;;;6069969;23;20013;-84
2022/03/10 07:06:23;;;;;;;24.25;13.88;;;-0.60;99.90;;;;;;6093244;23;20072;-83
2022/03/10 07:08:49;;;;;;;25.50;13.20;;;-0.60;99.90;;;;;;6093359;23;20021;-83
2022/03/10 07:11:15;;;;;;;24.70;12.18;;;-0.50;99.90;;;;;;6142385;23;20017;-83
2022/03/10 07:13:41;;;;;;;20.17;11.30;;;-0.50;99.90;;;;;;6118579;23;20518;-83
2022/03/10 07:16:07;;;;;;;18.95;11.75;;;-0.40;99.90;;;;;;6094937;23;20081;-83
2022/03/10 07:18:32;;;;;;;22.77;13.10;;;-0.30;99.90;;;;;;6093116;23;20052;-83
2022/03/10 07:20:59;;;;;;;23.73;12.90;;;-0.10;99.90;;;;;;6118379;23;20738;-83
2022/03/10 07:23:24;;;;;;;21.10;12.10;;;0.00;99.90;;;;;;6117267;23;20540;-84
2022/03/10 07:25:50;;;;;;;25.33;12.60;;;0.70;99.90;;;;;;6093397;23;20028;-82
2022/03/10 07:28:16;;;;;;;22.45;12.45;;;0.30;99.90;;;;;;6117418;23;20032;-82
2022/03/10 07:30:41;;;;;;;25.60;13.25;;;0.40;99.90;;;;;;6096575;23;20017;-84
2022/03/10 07:33:07;;;;;;;22.48;11.98;;;0.60;99.90;;;;;;6144043;23;20025;-82
2022/03/10 07:35:33;;;;;;;25.98;13.00;;;1.40;99.90;;;;;;6094266;23;20093;-82
2022/03/10 07:37:59;;;;;;;22.63;12.38;;;0.80;99.90;;;;;;6119623;23;20013;-84
2022/03/10 07:40:26;;;;;;;23.75;12.27;;;0.90;99.90;;;;;;6095157;23;20017;-85
2022/03/10 07:42:52;;;;;;;24.77;13.32;;;1.00;99.90;;;;;;6095356;23;20084;-82
2022/03/10 07:45:17;;;;;;;22.30;12.32;;;1.20;99.90;;;;;;6095071;23;20030;-82
2022/03/10 07:47:43;;;;;;;20.02;11.82;;;1.60;99.90;;;;;;6135831;23;20009;-82
2022/03/10 07:50:09;;;;;;;23.02;12.85;;;2.50;99.90;;;;;;6088595;23;20496;-81
2022/03/10 07:52:35;;;;;;;24.63;12.65;;;3.40;99.90;;;;;;6114076;23;20413;-83
2022/03/10 07:55:01;;;;;;;22.08;12.40;;;4.00;99.90;;;;;;6114195;23;20032;-82
2022/03/10 07:57:27;;;;;;;22.75;13.68;;;4.30;99.80;;;;;;6065702;23;20045;-81
2022/03/10 07:59:52;;;;;;;21.77;12.85;;;4.40;99.60;;;;;;6138485;23;20056;-80
2022/03/10 08:02:19;;;;;;;21.98;13.13;;;4.90;99.90;;;;;;6088433;23;20025;-82
2022/03/10 08:04:44;;;;;;;19.95;12.82;;;5.30;99.10;;;;;;6113144;23;20033;-84
2022/03/10 08:07:10;;;;;;;24.42;13.05;;;6.30;98.70;;;;;;6066431;23;20013;-84
2022/03/10 08:09:37;;;;;;;21.95;13.55;;;5.30;98.00;;;;;;6089141;23;20147;-82
2022/03/10 08:12:03;;;;;;;21.40;14.45;;;5.50;98.60;;;;;;6089366;23;20014;-83
2022/03/10 08:14:29;;;;;;;20.05;12.63;;;5.70;98.40;;;;;;6065226;23;20021;-82
2022/03/10 08:16:54;;;;;;;22.65;13.55;;;5.90;98.30;;;;;;6088456;23;20025;-82
2022/03/10 08:19:20;;;;;;;19.52;13.07;;;6.00;98.20;;;;;;6064800;23;20495;-82
2022/03/10 08:21:47;;;;;;;19.70;13.00;;;6.40;98.30;;;;;;6113395;23;20118;-82
2022/03/10 08:24:13;;;;;;;20.02;13.43;;;6.80;97.80;;;;;;6088478;23;20080;-82
2022/03/10 08:26:39;;;;;;;19.15;12.60;;;6.60;96.80;;;;;;6065659;23;20018;-82
2022/03/10 08:29:06;;;;;;;22.25;14.20;;;6.60;96.50;;;;;;6113661;23;20341;-81
2022/03/10 08:31:31;;;;;;;23.25;13.95;;;6.80;96.30;;;;;;6112431;23;20024;-81
2022/03/10 08:33:57;;;;;;;20.10;13.20;;;6.80;95.80;;;;;;6114855;23;20021;-82
2022/03/10 08:36:23;;;;;;;17.08;12.07;;;7.40;96.10;;;;;;6090460;23;20014;-83
2022/03/10 08:38:49;;;;;;;18.88;12.48;;;8.00;95.10;;;;;;6138078;23;20033;-83
2022/03/10 08:41:15;;;;;;;18.70;13.38;;;8.30;93.90;;;;;;6065106;23;20502;-83
2022/03/10 08:43:41;;;;;;;19.70;12.05;;;8.70;93.90;;;;;;6113857;23;20120;-83
2022/03/10 08:46:06;;;;;;;20.02;13.15;;;8.80;93.20;;;;;;6088951;23;20032;-83
2022/03/10 08:48:34;;;;;;;19.75;13.27;;;9.00;92.60;;;;;;6089688;23;20702;-84
2022/03/10 08:51:01;;;;;;;20.00;13.40;;;9.20;92.10;;;;;;6138147;23;20382;-84
2022/03/10 08:53:26;;;;;;;17.52;12.40;;;9.80;91.90;;;;;;6113874;23;20017;-81
2022/03/10 08:55:52;;;;;;;17.65;12.60;;;10.60;91.20;;;;;;6089349;23;20020;-82
2022/03/10 08:58:18;;;;;;;19.10;12.07;;;11.40;89.20;;;;;;6089455;23;20457;-83
2022/03/10 09:00:44;;;;;;;15.70;11.43;;;11.40;78.10;;;;;;6112004;23;20025;-82
2022/03/10 09:03:10;;;;;;;22.00;11.60;;;11.50;77.30;;;;;;6113441;23;20028;-82
2022/03/10 09:05:37;;;;;;;13.82;10.80;;;11.90;77.10;;;;;;6088049;23;20061;-82
2022/03/10 09:08:03;;;;;;;19.85;11.85;;;11.50;74.60;;;;;;6088166;23;20124;-82
2022/03/10 09:10:30;;;;;;;16.70;11.80;;;11.70;71.60;;;;;;6112930;23;20122;-84
2022/03/10 09:12:56;;;;;;;17.58;11.38;;;12.10;72.30;;;;;;6113916;23;20057;-82
2022/03/10 09:15:22;;;;;;;17.02;11.43;;;12.40;71.10;;;;;;6088026;23;20063;-84
2022/03/10 09:17:48;;;;;;;21.90;11.90;;;12.20;69.20;;;;;;6112049;23;20044;-83
2022/03/10 09:20:14;;;;;;;15.73;11.75;;;12.40;70.80;;;;;;6087985;23;20465;-82
2022/03/10 09:22:41;;;;;;;17.25;11.88;;;13.20;71.40;;;;;;6089123;23;20033;-82
2022/03/10 09:25:08;;;;;;;16.73;11.88;;;14.10;72.40;;;;;;6112197;23;20045;-82
2022/03/10 09:27:38;;;;;;;18.85;11.80;;;14.50;69.70;;;;;;6088626;23;20014;-82
2022/03/10 09:30:08;;;;;;;17.65;11.63;;;15.00;69.40;;;;;;6088334;23;20024;-82
2022/03/10 09:32:39;;;;;;;18.88;12.45;;;15.50;68.80;;;;;;6094486;23;20017;-82
2022/03/10 09:35:07;;;;;;;16.10;12.10;;;15.40;66.10;;;;;;6093824;23;20171;-79
2022/03/10 09:37:33;;;;;;;16.88;11.52;;;16.00;66.80;;;;;;6094239;23;20021;-79
2022/03/10 09:39:59;;;;;;;14.52;12.10;;;16.50;65.30;;;;;;6094770;23;20025;-79
2022/03/10 09:42:28;;;;;;;16.83;12.38;;;17.20;64.80;;;;;;6095528;23;20018;-80
2022/03/10 09:44:59;;;;;;;15.18;12.00;;;17.70;62.40;;;;;;6119288;23;20101;-80
2022/03/10 09:47:25;;;;;;;15.60;11.57;;;17.90;60.80;;;;;;6118888;23;20076;-80
2022/03/10 09:49:52;;;;;;;14.27;11.10;;;17.60;59.90;;;;;;6119681;23;20021;-79
2022/03/10 09:52:19;;;;;;;14.55;11.13;;;16.40;56.20;;;;;;6119767;23;20018;-80
2022/03/10 09:54:45;;;;;;;15.57;11.18;;;16.40;57.30;;;;;;6094696;23;20025;-80
2022/03/10 09:57:14;;;;;;;20.17;11.48;;;16.10;56.20;;;;;;6094943;23;20027;-79
2022/03/10 09:59:51;;;;;;;16.73;11.13;;;16.00;56.10;;;;;;6119582;23;20022;-82
2022/03/10 10:02:18;;;;;;;15.38;10.70;;;15.50;56.00;;;;;;6119033;23;20051;-82
2022/03/10 10:04:44;;;;;;;14.70;10.93;;;15.40;57.50;;;;;;6094909;23;20101;-81
2022/03/10 10:07:11;;;;;;;15.18;11.45;;;16.10;57.90;;;;;;6095711;23;20014;-81
2022/03/10 10:09:44;;;;;;;14.43;10.90;;;16.30;56.20;;;;;;6071602;23;20045;-81
2022/03/10 10:12:12;;;;;;;14.50;11.32;;;15.40;55.90;;;;;;6119236;23;20017;-82
2022/03/10 10:14:42;;;;;;;18.75;11.32;;;15.60;55.30;;;;;;6095083;23;20079;-79
2022/03/10 10:17:08;;;;;;;16.52;11.27;;;15.90;55.90;;;;;;6096029;23;20059;-80
2022/03/10 10:19:35;;;;;;;14.40;10.70;;;16.10;54.70;;;;;;6123715;23;20033;-79
2022/03/10 10:22:12;;;;;;;15.85;11.43;;;15.90;54.60;;;;;;6095637;23;20088;-79
2022/03/10 10:24:38;;;;;;;16.27;11.23;;;16.50;54.10;;;;;;6123398;23;20027;-79
2022/03/10 10:27:15;;;;;;;14.80;11.10;;;16.30;53.70;;;;;;6126120;23;20092;-79
2022/03/10 10:29:52;;;;;;;16.67;10.70;;;15.80;53.10;;;;;;6100485;23;20018;-79
2022/03/10 10:32:32;;;;;;;17.05;10.82;;;16.30;54.60;;;;;;6124781;23;20013;-79
2022/03/10 10:35:08;;;;;;;18.65;11.75;;;15.90;54.80;;;;;;6095417;23;20373;-79
2022/03/10 10:37:37;;;;;;;17.52;11.60;;;16.00;54.40;;;;;;6117865;23;20092;-79
2022/03/10 10:40:04;;;;;;;17.15;11.63;;;15.70;53.90;;;;;;6094173;23;20021;-81
2022/03/10 10:42:32;;;;;;;16.90;11.38;;;16.10;53.80;;;;;;6094155;23;20057;-81
2022/03/10 10:44:59;;;;;;;16.90;11.80;;;16.10;53.20;;;;;;6117776;23;20057;-80
2022/03/10 10:47:29;;;;;;;19.25;11.25;;;15.70;52.20;;;;;;6093365;23;20075;-81
2022/03/10 10:50:04;;;;;;;17.83;10.77;;;16.10;53.30;;;;;;6118060;23;20013;-80
2022/03/10 10:52:40;;;;;;;13.77;10.43;;;17.00;53.70;;;;;;6093801;23;20025;-81
2022/03/10 10:55:10;;;;;;;17.58;11.50;;;17.70;53.40;;;;;;6093567;23;20025;-81
2022/03/10 10:57:37;;;;;;;15.57;10.93;;;18.30;52.80;;;;;;6117396;23;20064;-80
2022/03/10 11:00:13;;;;;;;15.45;11.40;;;17.60;49.90;;;;;;6094278;23;20032;-80
2022/03/10 11:02:44;;;;;;;17.00;11.00;;;16.80;51.00;;;;;;6093959;23;20017;-79
2022/03/10 11:05:14;;;;;;;17.15;11.80;;;16.70;51.20;;;;;;6093930;23;20021;-81
2022/03/10 11:07:40;;;;;;;25.38;12.63;;;15.80;51.70;;;;;;6119395;23;20029;-80
2022/03/10 11:10:11;;;;;;;14.98;11.80;;;16.00;51.80;;;;;;6096268;23;20068;-80
2022/03/10 11:12:40;;;;;;;17.38;12.15;;;16.10;52.10;;;;;;6144260;23;20374;-80
2022/03/10 11:15:09;;;;;;;17.75;11.88;;;16.00;52.70;;;;;;6095427;23;20353;-80
2022/03/10 11:17:35;;;;;;;17.55;11.70;;;16.30;52.60;;;;;;6119300;23;20064;-80
2022/03/10 11:20:07;;;;;;;15.48;11.07;;;16.40;52.80;;;;;;6095853;23;20021;-79
2022/03/10 11:22:39;;;;;;;18.27;12.13;;;17.00;51.70;;;;;;6118899;23;20091;-80
2022/03/10 11:25:21;;;;;;;34.13;12.88;;;16.90;50.10;;;;;;6119783;23;20021;-80
2022/03/10 11:28:04;;;;;;;20.73;12.93;;;17.40;50.50;;;;;;6119073;23;20017;-80
2022/03/10 11:30:32;;;;;;;21.23;11.55;;;17.70;49.70;;;;;;6095403;23;20029;-80
2022/03/10 11:33:07;;;;;;;19.25;11.98;;;17.50;49.80;;;;;;6119160;23;20100;-80
2022/03/10 11:35:37;;;;;;;21.30;13.10;;;17.10;49.70;;;;;;6119515;23;20101;-80
2022/03/10 11:38:03;;;;;;;18.33;12.80;;;16.80;49.80;;;;;;6119738;23;20021;-80
2022/03/10 11:40:42;;;;;;;20.02;11.23;;;16.10;49.70;;;;;;6095781;23;20044;-80
2022/03/10 11:43:08;;;;;;;18.30;12.52;;;15.80;51.00;;;;;;6117052;23;20026;-81
2022/03/10 11:45:34;;;;;;;20.95;12.57;;;15.70;51.80;;;;;;6043912;23;20118;-83
2022/03/10 11:48:28;;;;;;;16.58;12.25;;;15.90;51.40;;;;;;6068155;23;20668;-84
2022/03/10 11:50:55;;;;;;;23.40;12.68;;;15.50;50.80;;;;;;6067336;23;20022;-81
2022/03/10 11:53:21;;;;;;;18.00;12.45;;;15.40;51.30;;;;;;6019225;23;20018;-80
2022/03/10 11:55:52;;;;;;;22.05;12.68;;;15.20;52.60;;;;;;6043099;23;20022;-78
2022/03/10 11:58:38;;;;;;;18.67;12.60;;;15.20;52.40;;;;;;6068175;23;20100;-82
2022/03/10 12:01:05;;;;;;;17.80;12.18;;;15.30;53.60;;;;;;6091610;23;20032;-81
2022/03/10 12:03:35;;;;;;;20.33;12.75;;;15.40;52.70;;;;;;6090352;23;20398;-81
2022/03/10 12:06:03;;;;;;;20.00;12.63;;;15.50;52.70;;;;;;6090342;23;20097;-81
2022/03/10 12:08:35;;;;;;;19.20;13.23;;;15.30;51.50;;;;;;6068400;23;20733;-81
2022/03/10 12:11:06;;;;;;;17.08;12.05;;;15.30;51.90;;;;;;6093744;23;20089;-80
2022/03/10 12:13:44;;;;;;;20.90;11.88;;;15.50;53.40;;;;;;6094228;23;20021;-81
2022/03/10 12:16:27;;;;;;;17.40;11.98;;;15.60;52.50;;;;;;6046464;23;20100;-81
2022/03/10 12:18:53;;;;;;;18.67;11.85;;;15.60;51.90;;;;;;6091126;23;20026;-79
2022/03/10 12:21:21;;;;;;;20.25;13.38;;;15.70;53.20;;;;;;6067426;23;20081;-80
2022/03/10 12:24:00;;;;;;;18.50;12.23;;;15.70;52.00;;;;;;6090202;23;20799;-82
2022/03/10 12:26:27;;;;;;;18.30;12.48;;;15.80;52.90;;;;;;6042658;23;20017;-82
2022/03/10 12:28:58;;;;;;;18.80;12.82;;;16.00;52.00;;;;;;6092134;23;20022;-83
2022/03/10 12:31:27;;;;;;;17.20;12.70;;;15.90;52.10;;;;;;6090935;23;20018;-84
2022/03/10 12:33:56;;;;;;;22.65;13.52;;;15.90;52.30;;;;;;6043165;23;20358;-82
2022/03/10 12:36:29;;;;;;;19.75;12.70;;;15.80;50.70;;;;;;6066830;23;20025;-81